createdAt,value
2023-03-18T00:00:09.249Z,0.00
2023-03-18T00:01:09.245Z,0.00
2023-03-18T00:02:09.234Z,0.00
2023-03-18T00:03:09.229Z,0.00
2023-03-18T00:04:09.269Z,0.00
2023-03-18T00:05:09.216Z,0.00
2023-03-18T00:06:09.251Z,0.00
2023-03-18T00:07:09.215Z,0.00
2023-03-18T00:08:09.190Z,0.00
2023-03-18T00:09:09.175Z,0.00
2023-03-18T00:10:09.169Z,0.00
2023-03-18T00:11:09.162Z,0.00
2023-03-18T00:12:09.173Z,0.00
2023-03-18T00:13:09.153Z,0.00
2023-03-18T00:14:09.153Z,0.00
2023-03-18T00:15:09.143Z,0.00
2023-03-18T00:16:09.207Z,0.00
2023-03-18T00:17:10.243Z,0.00
2023-03-18T00:18:09.099Z,0.00
2023-03-18T00:19:09.113Z,0.00
2023-03-18T00:20:09.098Z,0.00
2023-03-18T00:21:09.108Z,0.00
2023-03-18T00:22:09.073Z,0.00
2023-03-18T00:24:09.229Z,0.00
2023-03-18T00:25:09.222Z,0.00
2023-03-18T00:26:09.242Z,0.00
2023-03-18T00:27:09.198Z,0.00
2023-03-18T00:28:10.292Z,0.00
2023-03-18T00:29:10.300Z,0.00
2023-03-18T00:30:10.285Z,0.00
2023-03-18T00:31:10.330Z,0.00
2023-03-18T00:32:10.265Z,0.00
2023-03-18T00:33:10.328Z,0.00
2023-03-18T00:34:12.401Z,0.00
2023-03-18T00:35:11.256Z,0.00
2023-03-18T00:36:11.311Z,0.00
2023-03-18T00:37:10.221Z,0.00
2023-03-18T00:38:10.222Z,0.00
2023-03-18T00:39:10.205Z,0.00
2023-03-18T00:40:10.197Z,0.00
2023-03-18T00:41:11.151Z,0.00
2023-03-18T00:42:10.195Z,0.00
2023-03-18T00:43:10.161Z,0.00
2023-03-18T00:44:11.157Z,0.00
2023-03-18T00:45:10.180Z,0.00
2023-03-18T00:46:10.147Z,0.00
2023-03-18T00:47:10.140Z,0.00
2023-03-18T00:48:10.124Z,0.00
2023-03-18T00:49:10.127Z,0.00
2023-03-18T00:50:10.121Z,0.00
2023-03-18T00:51:10.102Z,0.00
2023-03-18T00:52:10.087Z,0.00
2023-03-18T00:53:11.064Z,0.00
2023-03-18T00:54:10.087Z,0.00
2023-03-18T00:55:10.066Z,0.00
2023-03-18T00:56:10.101Z,0.00
2023-03-18T00:57:10.064Z,0.00
2023-03-18T00:58:10.049Z,0.00
2023-03-18T00:59:10.643Z,0.00
2023-03-18T01:00:10.027Z,0.00
2023-03-18T01:01:10.088Z,0.00
2023-03-18T01:02:10.069Z,0.00
2023-03-18T01:03:10.004Z,0.00
2023-03-18T01:04:10.008Z,0.00
2023-03-18T01:05:09.989Z,0.00
2023-03-18T01:06:09.996Z,0.00
2023-03-18T01:07:09.981Z,0.00
2023-03-18T01:08:10.082Z,0.00
2023-03-18T01:09:09.960Z,0.00
2023-03-18T01:10:09.942Z,0.00
2023-03-18T01:11:09.950Z,0.00
2023-03-18T01:12:09.966Z,0.00
2023-03-18T01:13:09.938Z,0.00
2023-03-18T01:14:09.914Z,0.00
2023-03-18T01:15:09.897Z,0.00
2023-03-18T01:16:09.932Z,0.00
2023-03-18T01:17:09.900Z,0.00
2023-03-18T01:18:09.888Z,0.00
2023-03-18T01:19:09.892Z,0.00
2023-03-18T01:20:09.882Z,0.00
2023-03-18T01:21:09.856Z,0.00
2023-03-18T01:22:09.843Z,0.00
2023-03-18T01:23:09.838Z,0.00
2023-03-18T01:24:09.834Z,0.00
2023-03-18T01:25:09.830Z,0.00
2023-03-18T01:26:09.820Z,0.00
2023-03-18T01:27:09.816Z,0.00
2023-03-18T01:28:09.801Z,0.00
2023-03-18T01:29:09.816Z,0.00
2023-03-18T01:30:09.786Z,0.00
2023-03-18T01:31:09.772Z,0.00
2023-03-18T01:32:09.795Z,0.00
2023-03-18T01:33:09.920Z,0.00
2023-03-18T01:34:09.757Z,0.00
2023-03-18T01:35:09.740Z,0.00
2023-03-18T01:36:09.764Z,0.00
2023-03-18T01:37:09.716Z,0.00
2023-03-18T01:38:09.720Z,0.00
2023-03-18T01:39:09.712Z,0.00
2023-03-18T01:40:09.698Z,0.00
2023-03-18T01:41:09.712Z,0.00
2023-03-18T01:42:09.676Z,0.00
2023-03-18T01:43:09.677Z,0.00
2023-03-18T01:44:09.670Z,0.00
2023-03-18T01:45:09.655Z,0.00
2023-03-18T01:46:09.704Z,0.00
2023-03-18T01:47:09.633Z,0.00
2023-03-18T01:48:09.641Z,0.00
2023-03-18T01:49:09.621Z,0.00
2023-03-18T01:50:09.617Z,0.00
2023-03-18T01:51:09.605Z,0.00
2023-03-18T01:52:09.591Z,0.00
2023-03-18T01:53:10.581Z,0.00
2023-03-18T01:54:09.593Z,0.00
2023-03-18T01:55:09.578Z,0.00
2023-03-18T01:56:09.558Z,0.00
2023-03-18T01:57:09.571Z,0.00
2023-03-18T01:58:09.553Z,0.00
2023-03-18T01:59:09.542Z,0.00
2023-03-18T02:00:09.533Z,0.00
2023-03-18T02:01:09.542Z,0.00
2023-03-18T02:02:09.520Z,0.00
2023-03-18T02:03:09.504Z,0.00
2023-03-18T02:04:09.512Z,0.00
2023-03-18T02:05:09.494Z,0.00
2023-03-18T02:06:09.489Z,0.00
2023-03-18T02:07:09.476Z,0.00
2023-03-18T02:08:09.463Z,0.00
2023-03-18T02:09:09.478Z,0.00
2023-03-18T02:10:10.416Z,0.00
2023-03-18T02:11:09.458Z,0.00
2023-03-18T02:12:09.444Z,0.00
2023-03-18T02:13:10.077Z,0.00
2023-03-18T02:14:09.424Z,0.00
2023-03-18T02:15:09.427Z,0.00
2023-03-18T02:16:09.401Z,0.00
2023-03-18T02:17:09.385Z,0.00
2023-03-18T02:18:09.396Z,0.00
2023-03-18T02:19:09.396Z,0.00
2023-03-18T02:20:09.372Z,0.00
2023-03-18T02:21:09.468Z,0.00
2023-03-18T02:22:09.344Z,0.00
2023-03-18T02:23:09.345Z,0.00
2023-03-18T02:24:09.341Z,0.00
2023-03-18T02:25:09.337Z,0.00
2023-03-18T02:26:09.335Z,0.00
2023-03-18T02:27:09.321Z,0.00
2023-03-18T02:28:09.310Z,0.00
2023-03-18T02:29:09.296Z,0.00
2023-03-18T02:30:09.295Z,0.00
2023-03-18T02:31:09.391Z,0.00
2023-03-18T02:32:09.274Z,0.00
2023-03-18T02:33:09.291Z,0.00
2023-03-18T02:34:09.249Z,0.00
2023-03-18T02:35:09.261Z,0.00
2023-03-18T02:36:09.246Z,0.00
2023-03-18T02:37:09.234Z,0.00
2023-03-18T02:38:09.251Z,0.00
2023-03-18T02:39:10.087Z,0.00
2023-03-18T02:40:09.231Z,0.00
2023-03-18T02:41:09.198Z,0.00
2023-03-18T02:42:09.200Z,0.00
2023-03-18T02:43:09.195Z,0.00
2023-03-18T02:44:09.179Z,0.00
2023-03-18T02:45:09.179Z,0.00
2023-03-18T02:46:09.192Z,0.00
2023-03-18T02:47:09.172Z,0.00
2023-03-18T02:48:09.157Z,0.00
2023-03-18T02:49:09.668Z,0.00
2023-03-18T02:50:09.132Z,0.00
2023-03-18T02:51:09.125Z,0.00
2023-03-18T02:52:09.120Z,0.00
2023-03-18T02:53:09.124Z,0.00
2023-03-18T02:54:09.101Z,0.00
2023-03-18T02:55:09.097Z,0.00
2023-03-18T02:56:09.079Z,0.00
2023-03-18T02:57:09.073Z,0.00
2023-03-18T02:58:09.081Z,0.00
2023-03-18T02:59:09.054Z,0.00
2023-03-18T03:00:09.046Z,0.00
2023-03-18T03:01:09.077Z,0.00
2023-03-18T03:02:09.083Z,0.00
2023-03-18T03:03:09.208Z,0.00
2023-03-18T03:04:09.019Z,0.00
2023-03-18T03:05:08.999Z,0.00
2023-03-18T03:06:10.006Z,0.00
2023-03-18T03:07:08.991Z,0.00
2023-03-18T03:08:08.985Z,0.00
2023-03-18T03:09:09.013Z,0.00
2023-03-18T03:10:08.975Z,0.00
2023-03-18T03:11:08.959Z,0.00
2023-03-18T03:12:08.970Z,0.00
2023-03-18T03:13:08.958Z,0.00
2023-03-18T03:14:08.961Z,0.00
2023-03-18T03:15:08.951Z,0.00
2023-03-18T03:16:08.971Z,0.00
2023-03-18T03:17:08.914Z,0.00
2023-03-18T03:18:08.913Z,0.00
2023-03-18T03:19:08.915Z,0.00
2023-03-18T03:20:08.902Z,0.00
2023-03-18T03:21:08.937Z,0.00
2023-03-18T03:22:08.880Z,0.00
2023-03-18T03:23:08.875Z,0.00
2023-03-18T03:24:08.864Z,0.00
2023-03-18T03:25:08.842Z,0.00
2023-03-18T03:26:08.848Z,0.00
2023-03-18T03:27:08.838Z,0.00
2023-03-18T03:28:08.850Z,0.00
2023-03-18T03:29:08.819Z,0.00
2023-03-18T03:30:08.806Z,0.00
2023-03-18T03:31:08.902Z,0.00
2023-03-18T03:32:08.786Z,0.00
2023-03-18T03:33:08.821Z,0.00
2023-03-18T03:34:08.773Z,0.00
2023-03-18T03:35:08.785Z,0.00
2023-03-18T03:36:08.809Z,0.00
2023-03-18T03:37:08.759Z,0.00
2023-03-18T03:38:08.753Z,0.00
2023-03-18T03:39:08.730Z,0.00
2023-03-18T03:40:08.734Z,0.00
2023-03-18T03:41:08.726Z,0.00
2023-03-18T03:42:08.728Z,0.00
2023-03-18T03:43:08.704Z,0.00
2023-03-18T03:44:08.708Z,0.00
2023-03-18T03:45:08.688Z,0.00
2023-03-18T03:46:08.736Z,0.00
2023-03-18T03:47:09.616Z,0.00
2023-03-18T03:48:08.664Z,0.00
2023-03-18T03:49:08.662Z,0.00
2023-03-18T03:50:08.641Z,0.00
2023-03-18T03:51:08.645Z,0.00
2023-03-18T03:52:08.650Z,0.00
2023-03-18T03:53:08.614Z,0.00
2023-03-18T03:54:08.622Z,0.00
2023-03-18T03:55:08.601Z,0.00
2023-03-18T03:56:08.604Z,0.00
2023-03-18T03:57:08.594Z,0.00
2023-03-18T03:58:08.582Z,0.00
2023-03-18T03:59:08.583Z,0.00
2023-03-18T04:00:08.566Z,0.00
2023-03-18T04:01:08.583Z,0.00
2023-03-18T04:02:08.559Z,0.00
2023-03-18T04:03:08.557Z,0.00
2023-03-18T04:04:08.575Z,0.00
2023-03-18T04:05:08.531Z,0.00
2023-03-18T04:06:08.534Z,0.00
2023-03-18T04:07:08.504Z,0.00
2023-03-18T04:08:08.515Z,0.00
2023-03-18T04:09:08.504Z,0.00
2023-03-18T04:10:08.493Z,0.00
2023-03-18T04:11:08.492Z,0.00
2023-03-18T04:12:08.470Z,0.00
2023-03-18T04:13:08.475Z,0.00
2023-03-18T04:14:08.460Z,0.00
2023-03-18T04:15:08.436Z,0.00
2023-03-18T04:16:08.551Z,0.00
2023-03-18T04:17:08.435Z,0.00
2023-03-18T04:18:08.446Z,0.00
2023-03-18T04:19:08.416Z,0.00
2023-03-18T04:20:08.410Z,0.00
2023-03-18T04:21:08.408Z,0.00
2023-03-18T04:22:08.396Z,0.00
2023-03-18T04:23:08.390Z,0.00
2023-03-18T04:24:08.374Z,0.00
2023-03-18T04:25:08.382Z,0.00
2023-03-18T04:26:08.355Z,0.00
2023-03-18T04:27:08.354Z,0.00
2023-03-18T04:28:08.353Z,0.00
2023-03-18T04:29:08.346Z,0.00
2023-03-18T04:30:08.378Z,0.00
2023-03-18T04:31:08.423Z,0.00
2023-03-18T04:32:08.319Z,0.00
2023-03-18T04:33:08.335Z,0.00
2023-03-18T04:34:08.300Z,0.00
2023-03-18T04:35:08.296Z,0.00
2023-03-18T04:36:08.343Z,0.00
2023-03-18T04:37:08.272Z,0.00
2023-03-18T04:38:08.265Z,0.00
2023-03-18T04:39:08.259Z,0.00
2023-03-18T04:40:08.268Z,0.00
2023-03-18T04:41:08.248Z,0.00
2023-03-18T04:42:08.234Z,0.00
2023-03-18T04:43:08.225Z,0.00
2023-03-18T04:44:08.227Z,0.00
2023-03-18T04:45:08.215Z,0.00
2023-03-18T04:46:08.230Z,0.00
2023-03-18T04:47:08.204Z,0.00
2023-03-18T04:48:09.116Z,0.00
2023-03-18T04:49:09.176Z,0.00
2023-03-18T04:50:08.156Z,0.00
2023-03-18T04:51:08.157Z,0.00
2023-03-18T04:52:27.077Z,0.00
2023-03-18T04:53:08.162Z,0.00
2023-03-18T04:54:08.147Z,0.00
2023-03-18T04:55:08.123Z,0.00
2023-03-18T04:56:08.128Z,0.00
2023-03-18T04:57:08.119Z,0.00
2023-03-18T04:58:08.092Z,0.00
2023-03-18T04:59:08.102Z,0.00
2023-03-18T05:00:10.401Z,0.00
2023-03-18T05:01:08.611Z,0.00
2023-03-18T05:02:09.080Z,0.00
2023-03-18T05:03:08.080Z,0.00
2023-03-18T05:04:08.085Z,4.00
2023-03-18T05:05:08.064Z,4.00
2023-03-18T05:06:08.044Z,0.00
2023-03-18T05:07:08.035Z,4.00
2023-03-18T05:08:08.048Z,4.00
2023-03-18T05:09:08.013Z,8.00
2023-03-18T05:10:08.014Z,8.00
2023-03-18T05:11:08.023Z,12.00
2023-03-18T05:12:07.995Z,12.00
2023-03-18T05:13:07.984Z,16.00
2023-03-18T05:14:07.983Z,20.00
2023-03-18T05:15:07.975Z,24.00
2023-03-18T05:16:08.016Z,28.00
2023-03-18T05:17:07.954Z,36.00
2023-03-18T05:18:07.943Z,40.00
2023-03-18T05:19:07.932Z,48.00
2023-03-18T05:20:07.927Z,60.00
2023-03-18T05:21:07.933Z,72.00
2023-03-18T05:22:07.913Z,84.00
2023-03-18T05:23:07.923Z,100.00
2023-03-18T05:24:07.906Z,116.00
2023-03-18T05:25:07.894Z,136.00
2023-03-18T05:26:07.885Z,152.00
2023-03-18T05:27:07.952Z,168.00
2023-03-18T05:28:10.852Z,188.00
2023-03-18T05:29:07.860Z,216.00
2023-03-18T05:30:07.863Z,244.00
2023-03-18T05:31:07.871Z,272.00
2023-03-18T05:32:07.929Z,292.00
2023-03-18T05:33:07.906Z,300.00
2023-03-18T05:34:07.822Z,304.00
2023-03-18T05:35:07.812Z,316.00
2023-03-18T05:36:07.936Z,328.00
2023-03-18T05:37:07.827Z,344.00
2023-03-18T05:38:07.790Z,356.00
2023-03-18T05:39:07.795Z,368.00
2023-03-18T05:40:07.774Z,384.00
2023-03-18T05:41:07.762Z,396.00
2023-03-18T05:42:07.973Z,408.00
2023-03-18T05:43:07.745Z,420.00
2023-03-18T05:44:07.740Z,432.00
2023-03-18T05:45:07.748Z,456.00
2023-03-18T05:46:07.791Z,488.00
2023-03-18T05:47:07.721Z,520.00
2023-03-18T05:48:07.701Z,556.00
2023-03-18T05:49:07.698Z,604.00
2023-03-18T05:50:07.709Z,656.00
2023-03-18T05:51:07.689Z,704.00
2023-03-18T05:52:07.693Z,732.00
2023-03-18T05:53:07.667Z,752.00
2023-03-18T05:54:07.649Z,792.00
2023-03-18T05:55:07.666Z,836.00
2023-03-18T05:56:07.639Z,840.00
2023-03-18T05:57:08.646Z,820.00
2023-03-18T05:58:07.640Z,808.00
2023-03-18T05:59:07.633Z,732.00
2023-03-18T06:00:07.616Z,688.00
2023-03-18T06:01:07.605Z,664.00
2023-03-18T06:02:07.603Z,688.00
2023-03-18T06:03:07.626Z,752.00
2023-03-18T06:04:07.584Z,844.00
2023-03-18T06:05:07.576Z,916.00
2023-03-18T06:06:07.588Z,912.00
2023-03-18T06:07:07.565Z,900.00
2023-03-18T06:08:07.556Z,948.00
2023-03-18T06:09:07.558Z,1024.00
2023-03-18T06:10:07.537Z,1128.00
2023-03-18T06:11:07.533Z,1268.00
2023-03-18T06:12:07.528Z,1396.00
2023-03-18T06:13:07.514Z,1456.00
2023-03-18T06:14:07.528Z,1512.00
2023-03-18T06:15:07.494Z,1588.00
2023-03-18T06:16:07.490Z,1684.00
2023-03-18T06:17:07.483Z,1776.00
2023-03-18T06:18:07.470Z,1856.00
2023-03-18T06:19:07.454Z,1932.00
2023-03-18T06:20:07.472Z,2028.00
2023-03-18T06:21:07.443Z,2184.00
2023-03-18T06:22:07.451Z,2424.00
2023-03-18T06:23:07.424Z,2648.00
2023-03-18T06:24:07.425Z,2808.00
2023-03-18T06:25:07.408Z,2924.00
2023-03-18T06:26:09.236Z,2996.00
2023-03-18T06:27:07.397Z,3076.00
2023-03-18T06:28:07.378Z,3112.00
2023-03-18T06:29:07.393Z,3040.00
2023-03-18T06:30:07.391Z,3004.00
2023-03-18T06:31:07.432Z,3008.00
2023-03-18T06:32:07.355Z,3052.00
2023-03-18T06:33:07.418Z,3200.00
2023-03-18T06:34:07.342Z,3328.00
2023-03-18T06:35:07.360Z,3608.00
2023-03-18T06:36:07.341Z,3520.00
2023-03-18T06:37:07.321Z,8940.00
2023-03-18T06:38:07.305Z,5624.00
2023-03-18T06:39:07.298Z,4848.00
2023-03-18T06:40:07.310Z,4660.00
2023-03-18T06:41:07.290Z,4508.00
2023-03-18T06:42:07.318Z,6096.00
2023-03-18T06:43:07.291Z,4868.00
2023-03-18T06:44:07.269Z,7656.00
2023-03-18T06:45:07.266Z,4824.00
2023-03-18T06:46:07.289Z,3856.00
2023-03-18T06:47:07.247Z,3728.00
2023-03-18T06:48:07.249Z,3628.00
2023-03-18T06:49:07.236Z,3504.00
2023-03-18T06:50:07.227Z,3384.00
2023-03-18T06:51:07.230Z,3292.00
2023-03-18T06:52:07.200Z,3268.00
2023-03-18T06:53:07.179Z,3408.00
2023-03-18T06:54:07.188Z,3548.00
2023-03-18T06:55:07.171Z,3636.00
2023-03-18T06:56:07.180Z,3792.00
2023-03-18T06:57:07.156Z,3976.00
2023-03-18T06:58:07.168Z,4356.00
2023-03-18T06:59:07.148Z,4972.00
2023-03-18T07:00:07.117Z,5544.00
2023-03-18T07:01:07.173Z,5928.00
2023-03-18T07:02:07.115Z,6240.00
2023-03-18T07:03:07.107Z,6416.00
2023-03-18T07:04:07.269Z,6448.00
2023-03-18T07:05:07.086Z,6492.00
2023-03-18T07:06:07.084Z,6488.00
2023-03-18T07:07:07.068Z,6540.00
2023-03-18T07:08:07.065Z,6976.00
2023-03-18T07:09:07.061Z,7476.00
2023-03-18T07:10:07.055Z,7952.00
2023-03-18T07:11:07.070Z,8728.00
2023-03-18T07:12:07.047Z,15904.00
2023-03-18T07:13:07.021Z,16512.00
2023-03-18T07:14:07.017Z,17536.00
2023-03-18T07:15:07.050Z,13052.00
2023-03-18T07:16:07.121Z,7432.00
2023-03-18T07:17:06.991Z,7292.00
2023-03-18T07:18:06.984Z,7096.00
2023-03-18T07:19:06.987Z,7808.00
2023-03-18T07:20:06.969Z,7168.00
2023-03-18T07:21:06.962Z,7116.00
2023-03-18T07:22:06.956Z,7160.00
2023-03-18T07:23:06.959Z,7548.00
2023-03-18T07:24:07.262Z,7788.00
2023-03-18T07:25:06.921Z,8080.00
2023-03-18T07:26:06.926Z,8256.00
2023-03-18T07:27:06.935Z,8352.00
2023-03-18T07:28:06.910Z,8192.00
2023-03-18T07:29:06.907Z,8084.00
2023-03-18T07:30:06.872Z,8304.00
2023-03-18T07:31:06.977Z,8508.00
2023-03-18T07:32:06.919Z,8628.00
2023-03-18T07:33:06.973Z,8632.00
2023-03-18T07:34:06.863Z,8616.00
2023-03-18T07:35:06.847Z,8200.00
2023-03-18T07:36:06.906Z,7680.00
2023-03-18T07:37:06.818Z,7256.00
2023-03-18T07:38:06.817Z,6772.00
2023-03-18T07:39:06.849Z,6528.00
2023-03-18T07:40:06.807Z,7052.00
2023-03-18T07:41:06.810Z,6984.00
2023-03-18T07:42:06.802Z,6732.00
2023-03-18T07:43:06.773Z,16544.00
2023-03-18T07:44:06.799Z,7092.00
2023-03-18T07:45:06.766Z,6676.00
2023-03-18T07:46:06.839Z,13976.00
2023-03-18T07:47:06.766Z,12812.00
2023-03-18T07:48:06.754Z,11364.00
2023-03-18T07:49:06.722Z,9136.00
2023-03-18T07:50:06.715Z,6392.00
2023-03-18T07:51:06.729Z,5980.00
2023-03-18T07:52:06.716Z,11564.00
2023-03-18T07:53:06.734Z,15872.00
2023-03-18T07:54:06.690Z,15484.00
2023-03-18T07:55:06.706Z,15260.00
2023-03-18T07:56:06.687Z,15216.00
2023-03-18T07:57:06.703Z,15196.00
2023-03-18T07:58:06.679Z,14980.00
2023-03-18T07:59:06.644Z,14956.00
2023-03-18T08:00:06.936Z,14896.00
2023-03-18T08:01:06.630Z,14888.00
2023-03-18T08:02:06.770Z,14852.00
2023-03-18T08:03:06.636Z,14944.00
2023-03-18T08:04:06.709Z,14692.00
2023-03-18T08:05:06.638Z,14724.00
2023-03-18T08:06:06.614Z,14684.00
2023-03-18T08:07:06.621Z,14788.00
2023-03-18T08:08:06.618Z,14440.00
2023-03-18T08:09:07.164Z,14432.00
2023-03-18T08:10:06.576Z,14476.00
2023-03-18T08:11:06.682Z,14448.00
2023-03-18T08:12:06.543Z,14448.00
2023-03-18T08:13:06.576Z,14332.00
2023-03-18T08:14:06.563Z,14244.00
2023-03-18T08:15:06.536Z,14264.00
2023-03-18T08:16:06.600Z,14088.00
2023-03-18T08:17:06.519Z,14240.00
2023-03-18T08:18:09.044Z,14020.00
2023-03-18T08:19:07.534Z,14168.00
2023-03-18T08:20:06.492Z,14292.00
2023-03-18T08:21:06.494Z,14320.00
2023-03-18T08:22:06.499Z,14364.00
2023-03-18T08:23:06.463Z,14556.00
2023-03-18T08:24:06.467Z,14872.00
2023-03-18T08:25:06.451Z,15168.00
2023-03-18T08:26:07.248Z,15268.00
2023-03-18T08:27:06.452Z,14848.00
2023-03-18T08:28:06.447Z,14572.00
2023-03-18T08:29:06.429Z,14112.00
2023-03-18T08:30:06.400Z,13632.00
2023-03-18T08:31:06.465Z,12448.00
2023-03-18T08:32:06.408Z,10408.00
2023-03-18T08:33:06.469Z,8476.00
2023-03-18T08:34:06.379Z,7344.00
2023-03-18T08:35:06.411Z,6960.00
2023-03-18T08:36:06.387Z,6884.00
2023-03-18T08:37:06.379Z,6856.00
2023-03-18T08:38:06.368Z,6680.00
2023-03-18T08:39:06.348Z,6572.00
2023-03-18T08:40:06.334Z,6464.00
2023-03-18T08:41:06.315Z,6388.00
2023-03-18T08:42:06.337Z,6360.00
2023-03-18T08:43:06.306Z,6440.00
2023-03-18T08:44:06.306Z,6292.00
2023-03-18T08:45:06.298Z,6232.00
2023-03-18T08:46:06.314Z,6188.00
2023-03-18T08:47:06.294Z,6160.00
2023-03-18T08:48:06.270Z,6156.00
2023-03-18T08:49:06.272Z,6140.00
2023-03-18T08:50:06.295Z,6120.00
2023-03-18T08:51:06.270Z,6112.00
2023-03-18T08:52:07.266Z,6112.00
2023-03-18T08:53:06.265Z,6104.00
2023-03-18T08:54:06.224Z,6088.00
2023-03-18T08:55:06.205Z,6072.00
2023-03-18T08:56:06.217Z,6048.00
2023-03-18T08:57:06.239Z,6080.00
2023-03-18T08:58:06.787Z,6020.00
2023-03-18T08:59:06.185Z,6036.00
2023-03-18T09:00:06.198Z,5980.00
2023-03-18T09:01:06.221Z,5964.00
2023-03-18T09:02:06.146Z,5944.00
2023-03-18T09:03:06.207Z,5936.00
2023-03-18T09:04:06.142Z,5912.00
2023-03-18T09:05:06.152Z,5904.00
2023-03-18T09:06:06.149Z,5872.00
2023-03-18T09:07:06.195Z,5860.00
2023-03-18T09:08:06.133Z,5856.00
2023-03-18T09:09:06.089Z,5816.00
2023-03-18T09:10:06.708Z,5824.00
2023-03-18T09:11:06.098Z,5776.00
2023-03-18T09:12:06.085Z,5768.00
2023-03-18T09:13:06.072Z,5744.00
2023-03-18T09:14:06.073Z,5724.00
2023-03-18T09:15:06.046Z,5712.00
2023-03-18T09:16:06.050Z,5700.00
2023-03-18T09:17:06.034Z,5748.00
2023-03-18T09:18:11.385Z,5664.00
2023-03-18T09:19:08.036Z,5652.00
2023-03-18T09:20:06.021Z,5628.00
2023-03-18T09:21:06.008Z,5620.00
2023-03-18T09:22:06.011Z,5604.00
2023-03-18T09:23:07.000Z,5588.00
2023-03-18T09:24:07.431Z,5580.00
2023-03-18T09:25:06.981Z,5576.00
2023-03-18T09:26:05.962Z,5560.00
2023-03-18T09:27:05.972Z,5544.00
2023-03-18T09:28:05.951Z,5536.00
2023-03-18T09:29:06.706Z,5528.00
2023-03-18T09:30:07.027Z,5588.00
2023-03-18T09:31:06.948Z,5508.00
2023-03-18T09:32:05.920Z,5476.00
2023-03-18T09:33:05.949Z,5496.00
2023-03-18T09:34:05.914Z,5484.00
2023-03-18T09:35:05.878Z,5480.00
2023-03-18T09:36:06.934Z,5464.00
2023-03-18T09:37:05.875Z,5504.00
2023-03-18T09:38:05.875Z,5448.00
2023-03-18T09:39:05.862Z,5444.00
2023-03-18T09:40:05.843Z,5428.00
2023-03-18T09:41:05.854Z,5420.00
2023-03-18T09:42:05.824Z,5420.00
2023-03-18T09:43:05.841Z,5412.00
2023-03-18T09:44:05.810Z,5396.00
2023-03-18T09:45:05.796Z,5376.00
2023-03-18T09:46:06.178Z,5396.00
2023-03-18T09:47:06.086Z,5372.00
2023-03-18T09:48:06.710Z,5372.00
2023-03-18T09:49:05.774Z,5372.00
2023-03-18T09:50:05.774Z,5376.00
2023-03-18T09:51:05.751Z,5360.00
2023-03-18T09:52:05.737Z,5348.00
2023-03-18T09:53:05.743Z,5352.00
2023-03-18T09:54:05.728Z,5336.00
2023-03-18T09:55:05.734Z,5336.00
2023-03-18T09:56:06.719Z,5328.00
2023-03-18T09:57:05.706Z,5324.00
2023-03-18T09:58:05.682Z,5308.00
2023-03-18T09:59:05.681Z,5316.00
2023-03-18T10:00:05.672Z,5304.00
2023-03-18T10:01:05.677Z,5304.00
2023-03-18T10:02:06.673Z,5312.00
2023-03-18T10:03:06.675Z,5308.00
2023-03-18T10:04:06.672Z,5312.00
2023-03-18T10:05:05.646Z,5360.00
2023-03-18T10:06:05.628Z,5296.00
2023-03-18T10:07:05.652Z,5300.00
2023-03-18T10:08:05.618Z,5304.00
2023-03-18T10:09:05.616Z,5296.00
2023-03-18T10:10:05.597Z,5396.00
2023-03-18T10:11:05.591Z,5292.00
2023-03-18T10:12:05.572Z,5336.00
2023-03-18T10:13:05.597Z,5300.00
2023-03-18T10:14:05.590Z,5296.00
2023-03-18T10:15:05.604Z,5296.00
2023-03-18T10:16:05.598Z,5292.00
2023-03-18T10:17:05.535Z,5308.00
2023-03-18T10:18:05.577Z,5296.00
2023-03-18T10:19:05.511Z,5296.00
2023-03-18T10:20:05.523Z,5300.00
2023-03-18T10:21:05.513Z,5304.00
2023-03-18T10:22:05.495Z,5300.00
2023-03-18T10:23:05.517Z,5320.00
2023-03-18T10:24:05.477Z,5308.00
2023-03-18T10:25:05.462Z,5276.00
2023-03-18T10:26:05.453Z,5288.00
2023-03-18T10:27:05.463Z,5296.00
2023-03-18T10:28:05.455Z,5308.00
2023-03-18T10:29:05.435Z,5308.00
2023-03-18T10:30:05.438Z,5304.00
2023-03-18T10:31:05.441Z,5316.00
2023-03-18T10:32:05.419Z,5348.00
2023-03-18T10:33:05.439Z,5352.00
2023-03-18T10:34:05.393Z,5388.00
2023-03-18T10:35:05.411Z,5456.00
2023-03-18T10:36:05.483Z,5456.00
2023-03-18T10:37:07.330Z,5440.00
2023-03-18T10:38:05.369Z,5440.00
2023-03-18T10:39:05.365Z,5552.00
2023-03-18T10:40:05.419Z,5668.00
2023-03-18T10:41:05.333Z,5672.00
2023-03-18T10:42:05.334Z,5640.00
2023-03-18T10:43:05.319Z,5604.00
2023-03-18T10:44:05.331Z,5604.00
2023-03-18T10:45:05.304Z,5632.00
2023-03-18T10:46:05.342Z,5720.00
2023-03-18T10:47:05.429Z,5608.00
2023-03-18T10:48:06.196Z,5540.00
2023-03-18T10:49:06.299Z,5792.00
2023-03-18T10:50:05.286Z,5900.00
2023-03-18T10:51:05.276Z,5736.00
2023-03-18T10:52:05.246Z,6004.00
2023-03-18T10:53:05.251Z,6184.00
2023-03-18T10:54:05.237Z,6256.00
2023-03-18T10:55:05.231Z,6384.00
2023-03-18T10:56:05.228Z,6508.00
2023-03-18T10:57:05.234Z,6436.00
2023-03-18T10:58:05.207Z,6360.00
2023-03-18T10:59:05.194Z,6408.00
2023-03-18T11:00:05.816Z,6320.00
2023-03-18T11:01:05.182Z,6436.00
2023-03-18T11:02:05.244Z,6548.00
2023-03-18T11:03:05.170Z,6684.00
2023-03-18T11:04:05.157Z,6704.00
2023-03-18T11:05:05.157Z,6704.00
2023-03-18T11:06:05.137Z,6700.00
2023-03-18T11:07:05.743Z,6716.00
2023-03-18T11:08:05.112Z,6688.00
2023-03-18T11:09:05.099Z,6728.00
2023-03-18T11:10:05.821Z,6716.00
2023-03-18T11:11:05.117Z,6652.00
2023-03-18T11:12:05.094Z,6616.00
2023-03-18T11:13:05.070Z,6548.00
2023-03-18T11:14:05.134Z,6728.00
2023-03-18T11:15:05.065Z,5796.00
2023-03-18T11:16:05.180Z,6768.00
2023-03-18T11:17:05.052Z,6760.00
2023-03-18T11:18:05.037Z,7140.00
2023-03-18T11:19:05.749Z,7404.00
2023-03-18T11:20:05.020Z,7588.00
2023-03-18T11:21:05.020Z,7556.00
2023-03-18T11:22:04.998Z,7516.00
2023-03-18T11:23:05.026Z,7532.00
2023-03-18T11:24:05.006Z,7524.00
2023-03-18T11:25:04.991Z,7488.00
2023-03-18T11:26:04.972Z,7440.00
2023-03-18T11:27:04.957Z,7384.00
2023-03-18T11:28:04.967Z,7128.00
2023-03-18T11:29:04.969Z,7096.00
2023-03-18T11:30:04.941Z,7016.00
2023-03-18T11:31:04.971Z,6996.00
2023-03-18T11:32:04.923Z,6944.00
2023-03-18T11:33:05.016Z,6816.00
2023-03-18T11:34:04.903Z,6796.00
2023-03-18T11:35:04.979Z,6712.00
2023-03-18T11:36:04.899Z,6700.00
2023-03-18T11:37:04.999Z,6616.00
2023-03-18T11:38:04.871Z,6632.00
2023-03-18T11:39:04.895Z,6572.00
2023-03-18T11:40:04.884Z,6520.00
2023-03-18T11:41:04.848Z,6496.00
2023-03-18T11:42:04.841Z,6400.00
2023-03-18T11:43:05.402Z,6316.00
2023-03-18T11:44:04.821Z,6164.00
2023-03-18T11:45:04.824Z,6172.00
2023-03-18T21:23:17.633Z,0.00
2023-03-18T21:24:17.608Z,0.00
2023-03-18T21:25:17.596Z,0.00
2023-03-18T21:26:18.695Z,0.00
2023-03-18T21:27:18.682Z,0.00
2023-03-18T21:28:18.680Z,0.00
2023-03-18T21:29:18.662Z,0.00
2023-03-18T21:30:18.688Z,0.00
2023-03-18T21:31:18.672Z,0.00
2023-03-18T21:32:18.644Z,0.00
2023-03-18T21:33:18.645Z,0.00
2023-03-18T21:34:18.622Z,0.00
2023-03-18T21:35:18.631Z,0.00
2023-03-18T21:36:19.494Z,0.00
2023-03-18T21:37:18.616Z,0.00
2023-03-18T21:38:18.601Z,0.00
2023-03-18T21:39:18.589Z,0.00
2023-03-18T21:40:18.583Z,0.00
2023-03-18T21:41:18.586Z,0.00
2023-03-18T21:42:18.577Z,0.00
2023-03-18T21:43:18.567Z,0.00
2023-03-18T21:44:19.506Z,0.00
2023-03-18T21:45:18.551Z,0.00
2023-03-18T21:46:18.603Z,0.00
2023-03-18T21:47:18.517Z,0.00
2023-03-18T21:48:18.525Z,0.00
2023-03-18T21:49:18.528Z,0.00
2023-03-18T21:50:18.497Z,0.00
2023-03-18T21:51:35.254Z,0.00
2023-03-18T21:52:20.496Z,0.00
2023-03-18T21:53:18.482Z,0.00
2023-03-18T21:54:18.516Z,0.00
2023-03-18T21:55:18.474Z,0.00
2023-03-18T21:56:18.467Z,0.00
2023-03-18T21:57:18.460Z,0.00
2023-03-18T21:58:18.491Z,0.00
2023-03-18T21:59:18.444Z,0.00
2023-03-18T22:00:18.448Z,0.00
2023-03-18T22:01:18.435Z,0.00
2023-03-18T22:02:18.414Z,0.00
2023-03-18T22:03:18.441Z,0.00
2023-03-18T22:04:18.440Z,0.00
2023-03-18T22:05:18.386Z,0.00
2023-03-18T22:06:18.385Z,0.00
2023-03-18T22:07:18.404Z,0.00
2023-03-18T22:08:18.373Z,0.00
2023-03-18T22:09:18.354Z,0.00
2023-03-18T22:10:18.350Z,0.00
2023-03-18T22:11:18.382Z,0.00
2023-03-18T22:12:18.339Z,0.00
2023-03-18T22:13:18.337Z,0.00
2023-03-18T22:14:18.322Z,0.00
2023-03-18T22:15:18.316Z,0.00
2023-03-18T22:16:18.333Z,0.00
2023-03-18T22:17:18.323Z,0.00